createdAt,value
2024-01-18T00:02:19.623Z,9.46
2024-01-18T00:04:46.979Z,9.37
2024-01-18T00:07:14.295Z,9.39
2024-01-18T00:09:41.222Z,9.46
2024-01-18T00:12:08.391Z,9.48
2024-01-18T00:14:35.286Z,9.43
2024-01-18T00:17:02.161Z,9.44
2024-01-18T00:19:29.681Z,9.45
2024-01-18T00:21:56.537Z,9.47
2024-01-18T00:24:23.377Z,9.45
2024-01-18T00:26:53.142Z,9.51
2024-01-18T00:29:20.122Z,9.54
2024-01-18T00:31:46.993Z,9.56
2024-01-18T00:34:13.915Z,9.48
2024-01-18T00:36:40.883Z,9.41
2024-01-18T00:39:12.345Z,9.46
2024-01-18T00:41:39.593Z,9.42
2024-01-18T00:44:06.520Z,9.35
2024-01-18T00:46:33.360Z,9.41
2024-01-18T00:49:00.330Z,9.49
2024-01-18T00:51:27.672Z,9.53
2024-01-18T00:53:54.799Z,9.53
2024-01-18T00:56:21.690Z,9.50
2024-01-18T00:58:49.495Z,9.55
2024-01-18T01:01:18.298Z,9.59
2024-01-18T01:03:45.483Z,9.49
2024-01-18T01:06:13.634Z,9.42
2024-01-18T01:08:40.804Z,9.42
2024-01-18T01:11:11.290Z,9.56
2024-01-18T01:13:38.332Z,9.52
2024-01-18T01:16:06.153Z,9.47
2024-01-18T01:18:34.763Z,9.45
2024-01-18T01:21:01.795Z,9.43
2024-01-18T01:23:28.743Z,9.41
2024-01-18T01:25:55.605Z,9.33
2024-01-18T01:28:22.526Z,9.21
2024-01-18T01:30:49.791Z,9.09
2024-01-18T01:33:16.942Z,8.99
2024-01-18T01:35:43.949Z,8.90
2024-01-18T01:38:10.849Z,8.80
2024-01-18T01:40:37.780Z,8.72
2024-01-18T01:43:04.784Z,8.62
2024-01-18T01:45:32.831Z,8.57
2024-01-18T01:48:00.141Z,8.51
2024-01-18T01:50:27.786Z,8.41
2024-01-18T01:52:55.117Z,8.29
2024-01-18T01:55:22.278Z,7.99
2024-01-18T01:57:49.471Z,7.78
2024-01-18T02:00:17.802Z,7.56
2024-01-18T02:02:45.943Z,7.37
2024-01-18T02:05:13.885Z,7.19
2024-01-18T02:07:41.317Z,6.97
2024-01-18T02:10:09.146Z,6.65
2024-01-18T02:12:36.365Z,6.54
2024-01-18T02:15:05.891Z,6.33
2024-01-18T02:17:32.819Z,6.20
2024-01-18T02:19:59.788Z,6.05
2024-01-18T02:22:30.239Z,5.86
2024-01-18T02:25:14.115Z,5.69
2024-01-18T02:27:41.121Z,5.60
2024-01-18T02:30:08.927Z,5.41
2024-01-18T02:32:35.744Z,5.24
2024-01-18T02:35:02.726Z,5.16
2024-01-18T02:37:29.974Z,5.13
2024-01-18T02:39:57.329Z,4.99
2024-01-18T02:42:24.244Z,4.88
2024-01-18T02:44:52.214Z,4.76
2024-01-18T02:47:19.254Z,4.72
2024-01-18T02:49:46.531Z,4.64
2024-01-18T02:52:16.256Z,4.61
2024-01-18T02:54:43.045Z,4.60
2024-01-18T02:57:09.946Z,4.56
2024-01-18T02:59:36.746Z,4.60
2024-01-18T03:02:03.706Z,4.72
2024-01-18T03:04:30.508Z,4.65
2024-01-18T03:06:57.282Z,4.58
2024-01-18T03:09:24.921Z,4.58
2024-01-18T03:11:51.886Z,4.61
2024-01-18T03:14:21.378Z,4.61
2024-01-18T03:16:48.272Z,4.53
2024-01-18T03:19:15.357Z,4.51
2024-01-18T03:21:42.397Z,4.50
2024-01-18T03:24:09.481Z,4.34
2024-01-18T03:26:36.340Z,4.32
2024-01-18T03:29:03.181Z,4.36
2024-01-18T03:31:31.365Z,4.37
2024-01-18T03:33:58.559Z,4.31
2024-01-18T03:36:25.536Z,4.21
2024-01-18T03:38:52.408Z,4.09
2024-01-18T03:41:19.469Z,4.01
2024-01-18T03:43:46.275Z,4.00
2024-01-18T03:46:16.542Z,4.05
2024-01-18T03:48:43.727Z,3.93
2024-01-18T03:51:10.789Z,3.99
2024-01-18T03:53:43.180Z,3.97
2024-01-18T03:56:12.835Z,3.91
2024-01-18T03:58:43.301Z,3.98
2024-01-18T04:01:10.587Z,3.99
2024-01-18T04:03:40.930Z,4.01
2024-01-18T04:06:07.965Z,4.04
2024-01-18T04:08:34.813Z,4.02
2024-01-18T04:11:03.327Z,4.01
2024-01-18T04:13:30.265Z,3.85
2024-01-18T04:15:57.093Z,3.83
2024-01-18T04:18:24.121Z,3.76
2024-01-18T04:20:53.810Z,3.77
2024-01-18T04:23:21.112Z,3.70
2024-01-18T04:25:52.736Z,3.71
2024-01-18T04:28:20.931Z,3.77
2024-01-18T04:30:48.405Z,3.78
2024-01-18T04:33:15.724Z,3.70
2024-01-18T04:35:42.629Z,3.67
2024-01-18T04:38:09.518Z,3.64
2024-01-18T04:40:36.395Z,3.66
2024-01-18T04:43:03.411Z,3.62
2024-01-18T04:45:30.486Z,3.62
2024-01-18T04:47:58.815Z,3.71
2024-01-18T04:50:27.029Z,3.70
2024-01-18T04:52:55.634Z,3.70
2024-01-18T04:55:23.401Z,3.69
2024-01-18T04:57:50.971Z,3.70
2024-01-18T05:00:18.525Z,3.75
2024-01-18T05:02:45.481Z,3.85
2024-01-18T05:05:13.356Z,3.87
2024-01-18T05:07:44.674Z,3.75
2024-01-18T05:10:12.343Z,3.71
2024-01-18T05:12:39.813Z,3.65
2024-01-18T05:15:11.355Z,3.62
2024-01-18T05:17:41.281Z,3.59
2024-01-18T05:20:09.409Z,3.58
2024-01-18T05:22:37.361Z,3.57
2024-01-18T05:25:04.699Z,3.54
2024-01-18T05:27:32.095Z,3.44
2024-01-18T05:30:00.055Z,3.39
2024-01-18T05:32:27.654Z,3.26
2024-01-18T05:34:54.665Z,3.18
2024-01-18T05:37:24.345Z,3.13
2024-01-18T05:39:51.951Z,3.11
2024-01-18T05:42:20.067Z,3.04
2024-01-18T05:44:48.524Z,2.97
2024-01-18T05:47:15.895Z,2.90
2024-01-18T05:49:42.975Z,2.91
2024-01-18T05:52:09.889Z,2.96
2024-01-18T05:54:36.830Z,2.91
2024-01-18T05:57:05.512Z,2.88
2024-01-18T05:59:32.610Z,2.82
2024-01-18T06:02:00.138Z,2.83
2024-01-18T06:04:27.204Z,2.73
2024-01-18T06:06:54.340Z,2.68
2024-01-18T06:09:21.399Z,2.70
2024-01-18T06:11:49.752Z,2.77
2024-01-18T06:14:16.752Z,2.71
2024-01-18T06:16:43.671Z,2.72
2024-01-18T06:19:12.783Z,2.71
2024-01-18T06:21:39.870Z,2.72
2024-01-18T06:24:07.248Z,2.70
2024-01-18T06:26:34.580Z,2.74
2024-01-18T06:29:01.424Z,2.64
2024-01-18T06:31:28.425Z,2.62
2024-01-18T06:33:55.671Z,2.65
2024-01-18T06:36:23.699Z,2.64
2024-01-18T06:38:53.708Z,2.67
2024-01-18T06:41:23.181Z,2.68
2024-01-18T06:43:51.374Z,2.72
2024-01-18T06:46:19.124Z,2.66
2024-01-18T06:48:55.265Z,2.60
2024-01-18T06:51:23.010Z,2.63
2024-01-18T06:53:51.507Z,2.92
2024-01-18T06:56:18.564Z,2.89
2024-01-18T06:58:45.510Z,2.87
2024-01-18T07:01:14.046Z,2.86
2024-01-18T07:03:43.375Z,2.75
2024-01-18T07:06:10.722Z,2.68
2024-01-18T07:08:40.327Z,2.66
2024-01-18T07:11:07.183Z,2.67
2024-01-18T07:13:34.087Z,2.70
2024-01-18T07:16:01.628Z,2.59
2024-01-18T07:18:28.812Z,2.65
2024-01-18T07:20:55.707Z,2.67
2024-01-18T07:23:22.860Z,2.63
2024-01-18T07:25:49.798Z,2.60
2024-01-18T07:28:16.744Z,2.60
2024-01-18T07:30:43.778Z,2.54
2024-01-18T07:33:10.935Z,2.44
2024-01-18T07:35:38.063Z,2.41
2024-01-18T07:38:05.636Z,2.35
2024-01-18T07:40:32.883Z,2.36
2024-01-18T07:42:59.854Z,2.43
2024-01-18T07:45:27.043Z,2.49
2024-01-18T07:47:54.596Z,2.42
2024-01-18T07:50:33.497Z,2.40
2024-01-18T07:53:03.502Z,2.35
2024-01-18T07:55:31.113Z,2.33
2024-01-18T07:57:58.073Z,2.27
2024-01-18T08:00:26.529Z,2.25
2024-01-18T08:02:54.384Z,2.22
2024-01-18T08:05:22.414Z,2.18
2024-01-18T08:07:49.563Z,2.09
2024-01-18T08:10:16.550Z,2.13
2024-01-18T08:12:47.674Z,2.17
2024-01-18T08:15:14.857Z,2.16
2024-01-18T08:17:45.047Z,2.21
2024-01-18T08:20:14.461Z,2.16
2024-01-18T08:22:43.209Z,2.12
2024-01-18T08:25:14.227Z,2.16
2024-01-18T08:27:45.885Z,2.09
2024-01-18T08:30:13.384Z,2.12
2024-01-18T08:32:40.329Z,2.21
2024-01-18T08:35:08.389Z,2.23
2024-01-18T08:37:37.305Z,2.22
2024-01-18T08:40:05.967Z,2.21
2024-01-18T08:42:33.077Z,2.10
2024-01-18T08:44:59.945Z,2.06
2024-01-18T08:47:27.658Z,2.04
2024-01-18T08:49:54.747Z,2.09
2024-01-18T08:52:23.472Z,2.16
2024-01-18T08:54:50.753Z,2.04
2024-01-18T08:57:19.499Z,1.99
2024-01-18T08:59:46.483Z,2.04
2024-01-18T09:02:20.737Z,2.10
2024-01-18T09:04:51.449Z,2.09
2024-01-18T09:07:18.415Z,2.15
2024-01-18T09:09:46.718Z,2.06
2024-01-18T09:12:14.855Z,2.02
2024-01-18T09:14:42.026Z,1.98
2024-01-18T09:17:10.998Z,1.98
2024-01-18T09:19:38.110Z,1.87
2024-01-18T09:22:04.947Z,1.84
2024-01-18T09:24:31.799Z,1.85
2024-01-18T09:26:58.627Z,1.87
2024-01-18T09:29:25.460Z,1.88
2024-01-18T09:31:52.365Z,1.85
2024-01-18T09:34:19.282Z,1.94
2024-01-18T09:36:48.706Z,1.92
2024-01-18T09:39:17.617Z,1.93
2024-01-18T09:41:54.233Z,1.92
2024-01-18T09:44:26.781Z,1.86
2024-01-18T09:46:59.214Z,1.80
2024-01-18T09:49:31.348Z,1.71
2024-01-18T09:51:59.363Z,1.71
2024-01-18T09:54:26.911Z,1.72
2024-01-18T09:56:54.982Z,1.67
2024-01-18T09:59:26.284Z,1.63
2024-01-18T10:01:53.248Z,1.73
2024-01-18T10:04:21.297Z,1.71
2024-01-18T10:06:48.425Z,1.56
2024-01-18T10:09:16.148Z,1.55
2024-01-18T10:11:48.158Z,1.51
2024-01-18T10:14:15.773Z,1.52
2024-01-18T10:16:43.503Z,1.55
2024-01-18T10:19:16.061Z,1.55
2024-01-18T10:21:45.440Z,1.55
2024-01-18T10:24:14.841Z,1.58
2024-01-18T10:26:42.375Z,1.50
2024-01-18T10:29:13.238Z,1.40
2024-01-18T10:31:43.920Z,1.39
2024-01-18T10:34:11.574Z,1.46
2024-01-18T10:36:39.608Z,1.43
2024-01-18T10:39:20.024Z,1.37
2024-01-18T10:41:48.045Z,1.37
2024-01-18T10:44:16.515Z,1.38
2024-01-18T10:46:43.798Z,1.30
2024-01-18T10:49:12.286Z,1.31
2024-01-18T10:51:41.270Z,1.36
2024-01-18T10:54:21.489Z,1.37
2024-01-18T10:56:58.358Z,1.41
2024-01-18T10:59:25.936Z,1.41
2024-01-18T11:02:01.247Z,1.35
2024-01-18T11:04:32.172Z,1.35
2024-01-18T11:07:00.020Z,1.39
2024-01-18T11:09:30.932Z,1.30
2024-01-18T11:11:59.352Z,1.18
2024-01-18T11:14:28.717Z,1.18
2024-01-18T11:16:59.869Z,1.25
2024-01-18T11:19:44.858Z,1.20
2024-01-18T11:22:23.697Z,1.14
2024-01-18T11:24:51.271Z,1.10
2024-01-18T11:27:23.190Z,1.08
2024-01-18T11:29:51.059Z,1.04
2024-01-18T11:32:23.070Z,1.05
2024-01-18T11:34:50.549Z,1.01
2024-01-18T11:37:20.617Z,1.08
2024-01-18T11:39:50.905Z,1.15
2024-01-18T11:42:21.114Z,1.01
2024-01-18T11:44:58.312Z,1.08
2024-01-18T11:47:30.032Z,1.11
2024-01-18T11:49:58.275Z,1.10
2024-01-18T11:52:27.052Z,1.03
2024-01-18T11:54:57.435Z,1.04
2024-01-18T11:57:25.265Z,1.09
2024-01-18T11:59:54.817Z,1.05
2024-01-18T12:02:23.043Z,0.99
2024-01-18T12:04:52.773Z,0.92
2024-01-18T12:07:23.226Z,0.91
2024-01-18T12:09:50.539Z,0.92
2024-01-18T12:12:19.985Z,0.94
2024-01-18T12:14:48.697Z,1.00
2024-01-18T12:17:17.392Z,0.97
2024-01-18T12:19:47.732Z,0.91
2024-01-18T12:22:19.699Z,0.98
2024-01-18T12:24:51.024Z,1.00
2024-01-18T12:27:18.424Z,1.00
2024-01-18T12:29:46.247Z,1.00
2024-01-18T12:32:18.751Z,0.99
2024-01-18T12:34:47.260Z,1.05
2024-01-18T12:37:15.398Z,0.99
2024-01-18T12:39:42.521Z,1.04
2024-01-18T12:42:09.822Z,0.94
2024-01-18T12:44:37.138Z,0.95
2024-01-18T12:47:06.090Z,1.02
2024-01-18T12:49:34.808Z,1.01
2024-01-18T12:52:04.160Z,0.94
2024-01-18T12:54:31.688Z,0.91
2024-01-18T12:57:07.335Z,0.95
2024-01-18T12:59:37.813Z,0.94
2024-01-18T13:02:05.547Z,0.93
2024-01-18T13:04:34.093Z,1.01
2024-01-18T13:07:05.452Z,1.01
2024-01-18T13:09:34.817Z,0.98
2024-01-18T13:12:06.033Z,0.91
2024-01-18T13:14:37.010Z,0.90
2024-01-18T13:17:05.146Z,0.87
2024-01-18T13:19:32.239Z,0.83
2024-01-18T13:21:59.337Z,0.75
2024-01-18T13:24:27.087Z,0.77
2024-01-18T13:26:54.158Z,0.76
2024-01-18T13:29:21.203Z,0.75
2024-01-18T13:31:49.182Z,0.85
2024-01-18T13:34:18.043Z,0.88
2024-01-18T13:36:46.099Z,0.86
2024-01-18T13:39:13.338Z,0.83
2024-01-18T13:41:40.254Z,0.84
2024-01-18T13:44:08.414Z,0.93
2024-01-18T13:46:38.875Z,0.92
2024-01-18T13:49:06.722Z,0.93
2024-01-18T13:51:33.942Z,0.94
2024-01-18T13:54:01.935Z,0.94
2024-01-18T13:56:29.055Z,0.99
2024-01-18T13:58:56.148Z,0.90
2024-01-18T14:01:24.519Z,0.86
2024-01-18T14:03:53.888Z,0.83
2024-01-18T14:06:23.513Z,0.88
2024-01-18T14:08:50.960Z,0.83
2024-01-18T14:11:18.462Z,0.87
2024-01-18T14:13:45.711Z,0.85
2024-01-18T14:16:15.548Z,0.89
2024-01-18T14:18:43.655Z,0.82
2024-01-18T14:21:11.600Z,0.79
2024-01-18T14:23:39.752Z,0.76
2024-01-18T14:26:06.959Z,0.75
2024-01-18T14:28:35.382Z,0.79
2024-01-18T14:31:03.117Z,0.79
2024-01-18T14:33:30.578Z,0.85
2024-01-18T14:35:58.397Z,0.80
2024-01-18T14:38:25.308Z,0.81
2024-01-18T14:40:52.197Z,0.87
2024-01-18T14:43:20.132Z,0.99
2024-01-18T14:45:48.593Z,0.94
2024-01-18T14:48:18.371Z,0.82
2024-01-18T14:50:47.060Z,0.81
2024-01-18T14:53:15.739Z,0.83
2024-01-18T14:55:43.118Z,0.86
2024-01-18T14:58:11.157Z,0.86
2024-01-18T15:00:38.985Z,0.85
2024-01-18T15:03:07.334Z,0.87
2024-01-18T15:05:34.611Z,0.83
2024-01-18T15:08:04.933Z,0.88
2024-01-18T15:10:32.806Z,0.89
2024-01-18T15:13:00.138Z,0.89
2024-01-18T15:15:27.586Z,0.91
2024-01-18T15:17:55.277Z,0.86
2024-01-18T15:20:22.358Z,0.86
2024-01-18T15:22:49.456Z,0.83
2024-01-18T15:25:16.425Z,0.85
2024-01-18T15:27:43.363Z,0.87
2024-01-18T15:30:13.939Z,0.82
2024-01-18T15:32:42.381Z,0.86
2024-01-18T15:35:11.564Z,0.87
2024-01-18T15:37:38.610Z,0.91
2024-01-18T15:40:10.804Z,0.90
2024-01-18T15:42:38.113Z,0.85
2024-01-18T15:45:05.769Z,0.91
2024-01-18T15:47:40.301Z,0.95
2024-01-18T15:50:08.650Z,0.93
2024-01-18T15:52:36.341Z,0.98
2024-01-18T15:55:03.621Z,0.99
2024-01-18T15:57:30.566Z,0.94
2024-01-18T15:59:57.845Z,0.91
2024-01-18T16:02:32.928Z,0.95
2024-01-18T16:05:02.148Z,0.95
2024-01-18T16:07:30.669Z,0.96
2024-01-18T16:09:57.584Z,0.96
2024-01-18T16:12:24.469Z,1.01
2024-01-18T16:14:51.429Z,0.99
2024-01-18T16:17:18.714Z,0.99
2024-01-18T16:19:45.576Z,0.96
2024-01-18T16:22:12.429Z,0.99
2024-01-18T16:24:39.738Z,0.98
2024-01-18T16:27:06.719Z,0.96
2024-01-18T16:29:41.574Z,0.94
2024-01-18T16:32:17.316Z,0.97
2024-01-18T16:34:44.638Z,0.92
2024-01-18T16:37:11.544Z,0.94
2024-01-18T16:39:39.308Z,1.00
2024-01-18T16:42:06.250Z,0.99
2024-01-18T16:44:33.131Z,0.95
2024-01-18T16:47:00.190Z,0.97
2024-01-18T16:49:27.676Z,0.96
2024-01-18T16:51:54.536Z,0.97
2024-01-18T16:54:22.784Z,0.95
2024-01-18T16:56:50.591Z,0.98
2024-01-18T16:59:17.527Z,0.88
2024-01-18T17:01:44.365Z,0.85
2024-01-18T17:04:12.417Z,0.95
2024-01-18T17:06:41.083Z,0.96
2024-01-18T17:09:08.598Z,0.94
2024-01-18T17:11:37.460Z,0.92
2024-01-18T17:14:06.116Z,0.95
2024-01-18T17:16:33.134Z,0.91
2024-01-18T17:19:00.045Z,0.86
2024-01-18T17:21:26.890Z,0.85
2024-01-18T17:23:53.751Z,0.87
2024-01-18T17:26:20.696Z,0.85
2024-01-18T17:28:47.590Z,0.81
2024-01-18T17:31:14.514Z,0.82
2024-01-18T17:33:41.665Z,0.83
2024-01-18T17:36:08.906Z,0.84
2024-01-18T17:38:36.222Z,0.83
2024-01-18T17:41:03.366Z,0.84
2024-01-18T17:43:30.243Z,0.79
2024-01-18T17:45:57.150Z,0.81
2024-01-18T17:48:26.544Z,0.76
2024-01-18T17:50:53.539Z,0.76
2024-01-18T17:53:20.618Z,0.72
2024-01-18T17:55:47.618Z,0.67
2024-01-18T17:58:14.745Z,0.67
2024-01-18T18:00:44.336Z,0.78
2024-01-18T18:03:12.001Z,0.70
2024-01-18T18:05:39.141Z,0.71
2024-01-18T18:08:06.585Z,0.68
2024-01-18T18:10:34.043Z,0.68
2024-01-18T18:13:00.951Z,0.70
2024-01-18T18:15:29.899Z,0.68
2024-01-18T18:17:59.068Z,0.66
2024-01-18T18:20:26.735Z,0.67
2024-01-18T18:22:53.800Z,0.68
2024-01-18T18:25:20.821Z,0.67
2024-01-18T18:27:47.790Z,0.66
2024-01-18T18:30:19.643Z,0.67
2024-01-18T18:32:53.980Z,0.65
2024-01-18T18:35:21.052Z,0.67
2024-01-18T18:37:47.993Z,0.64
2024-01-18T18:40:15.021Z,0.62
2024-01-18T18:42:42.052Z,0.61
2024-01-18T18:45:09.361Z,0.64
2024-01-18T18:47:36.363Z,0.56
2024-01-18T18:50:03.396Z,0.60
2024-01-18T18:52:33.285Z,0.57
2024-01-18T18:55:02.832Z,0.59
2024-01-18T18:57:30.324Z,0.65
2024-01-18T18:59:57.579Z,0.67
2024-01-18T19:02:24.808Z,0.69
2024-01-18T19:04:51.890Z,0.74
2024-01-18T19:07:20.904Z,0.72
2024-01-18T19:09:47.729Z,0.72
2024-01-18T19:12:14.959Z,0.75
2024-01-18T19:14:42.240Z,0.65
2024-01-18T19:17:10.450Z,0.61
2024-01-18T19:19:37.672Z,0.66
2024-01-18T19:22:05.583Z,0.69
2024-01-18T19:24:32.524Z,0.64
2024-01-18T19:26:59.470Z,0.58
2024-01-18T19:29:26.292Z,0.63
2024-01-18T19:31:53.224Z,0.57
2024-01-18T19:34:20.231Z,0.60
2024-01-18T19:36:49.484Z,0.66
2024-01-18T19:39:17.762Z,0.62
2024-01-18T19:41:44.692Z,0.62
2024-01-18T19:44:12.010Z,0.57
2024-01-18T19:46:39.637Z,0.51
2024-01-18T19:49:07.010Z,0.46
2024-01-18T19:51:34.100Z,0.49
2024-01-18T19:54:03.789Z,0.46
2024-01-18T19:56:30.750Z,0.43
2024-01-18T19:58:57.851Z,0.49
2024-01-18T20:01:24.662Z,0.59
2024-01-18T20:03:51.464Z,0.60
2024-01-18T20:06:18.384Z,0.63
2024-01-18T20:08:45.324Z,0.64
2024-01-18T20:11:14.686Z,0.54
2024-01-18T20:13:41.555Z,0.53
2024-01-18T20:16:08.925Z,0.55
2024-01-18T20:18:35.956Z,0.49
2024-01-18T20:21:03.738Z,0.53
2024-01-18T20:23:30.689Z,0.60
2024-01-18T20:25:57.789Z,0.66
2024-01-18T20:28:24.702Z,0.69
2024-01-18T20:30:51.783Z,0.75
2024-01-18T20:33:19.449Z,0.72
2024-01-18T20:35:46.956Z,0.76
2024-01-18T20:38:14.078Z,0.66
2024-01-18T20:40:41.765Z,0.60
2024-01-18T20:43:08.851Z,0.66
2024-01-18T20:45:35.934Z,0.69
2024-01-18T20:48:03.045Z,0.67
2024-01-18T20:50:30.501Z,0.68
2024-01-18T20:52:57.339Z,0.65
2024-01-18T20:55:24.330Z,0.66
2024-01-18T20:57:51.446Z,0.65
2024-01-18T21:00:25.737Z,0.67
2024-01-18T21:02:56.487Z,0.68
2024-01-18T21:05:23.443Z,0.69
2024-01-18T21:07:50.358Z,0.72
2024-01-18T21:10:19.499Z,0.74
2024-01-18T21:12:48.684Z,0.78
2024-01-18T21:15:15.993Z,0.78
2024-01-18T21:17:45.234Z,0.73
2024-01-18T21:20:13.399Z,0.77
2024-01-18T21:22:40.361Z,0.71
2024-01-18T21:25:07.557Z,0.67
2024-01-18T21:27:34.661Z,0.63
2024-01-18T21:30:01.597Z,0.64
2024-01-18T21:32:28.586Z,0.68
2024-01-18T21:34:55.506Z,0.69
2024-01-18T21:37:22.603Z,0.73
2024-01-18T21:39:49.502Z,0.67
2024-01-18T21:42:18.003Z,0.67
2024-01-18T21:44:47.160Z,0.63
2024-01-18T21:47:14.112Z,0.64
2024-01-18T21:52:08.404Z,0.60
2024-01-18T21:54:35.493Z,0.55
2024-01-18T21:57:02.448Z,0.54
2024-01-18T21:59:38.900Z,0.48
2024-01-18T22:02:12.516Z,0.42
2024-01-18T22:04:40.726Z,0.47
2024-01-18T22:07:09.745Z,0.45
2024-01-18T22:09:41.982Z,0.42
2024-01-18T22:12:11.898Z,0.51
2024-01-18T22:14:39.408Z,0.50
2024-01-18T22:17:06.675Z,0.55
2024-01-18T22:19:43.228Z,0.54
2024-01-18T22:22:18.811Z,0.50
2024-01-18T22:24:47.090Z,0.47
2024-01-18T22:27:14.082Z,0.45
2024-01-18T22:29:42.620Z,0.45
2024-01-18T22:32:16.415Z,0.46
2024-01-18T22:34:43.429Z,0.46
2024-01-18T22:37:10.306Z,0.48
2024-01-18T22:39:37.129Z,0.51
2024-01-18T22:42:04.366Z,0.45
2024-01-18T22:44:31.318Z,0.37
2024-01-18T22:47:01.076Z,0.29
2024-01-18T22:49:28.417Z,0.31
2024-01-18T22:51:55.510Z,0.33
2024-01-18T22:54:22.566Z,0.36
2024-01-18T22:56:49.564Z,0.39
2024-01-18T22:59:16.583Z,0.34
2024-01-18T23:01:43.685Z,0.36
2024-01-18T23:04:13.606Z,0.29
2024-01-18T23:06:42.750Z,0.30
2024-01-18T23:09:12.515Z,0.38
2024-01-18T23:11:41.233Z,0.36
2024-01-18T23:14:08.465Z,0.33
2024-01-18T23:16:35.375Z,0.28
2024-01-18T23:19:02.275Z,0.23
2024-01-18T23:21:29.223Z,0.22
2024-01-18T23:23:56.126Z,0.22
2024-01-18T23:26:23.009Z,0.20
2024-01-18T23:28:51.328Z,0.19
2024-01-18T23:31:19.028Z,0.17
2024-01-18T23:33:46.020Z,0.16
2024-01-18T23:36:13.136Z,0.14
2024-01-18T23:38:40.013Z,0.16
2024-01-18T23:41:07.183Z,0.20
2024-01-18T23:43:34.029Z,0.27
2024-01-18T23:46:00.900Z,0.28
2024-01-18T23:48:27.853Z,0.28
2024-01-18T23:50:54.754Z,0.31
2024-01-18T23:53:21.625Z,0.34
2024-01-18T23:55:48.391Z,0.26
2024-01-18T23:58:15.266Z,0.21
